Time;durP1;ratioP1;P1;durP2;ratioP2;P2;SDS_P1;SDS_P2;PMS_P1;PMS_P2;Temp;Humidity;BMP_temperature;BMP_pressure;BME280_temperature;BME280_humidity;BME280_pressure;Samples;Min_cycle;Max_cycle;Signal;HPM_P1;HPM_P2
2023/04/21 00:01:26;;;;;;;18.57;13.80;;;9.50;99.90;;;;;;5013610;28;20242;-84
2023/04/21 00:03:54;;;;;;;16.10;13.13;;;9.50;99.90;;;;;;5013633;28;20253;-85
2023/04/21 00:06:22;;;;;;;16.87;14.13;;;9.50;99.90;;;;;;5017701;28;20622;-84
2023/04/21 00:08:49;;;;;;;20.30;14.80;;;9.50;99.90;;;;;;5018289;28;20295;-83
2023/04/21 00:11:17;;;;;;;19.80;14.50;;;9.50;99.90;;;;;;5017954;28;20290;-84
2023/04/21 00:13:44;;;;;;;18.43;14.77;;;9.50;99.90;;;;;;5017770;28;20215;-84
2023/04/21 00:16:11;;;;;;;19.67;15.37;;;9.40;99.90;;;;;;5016941;28;20211;-84
2023/04/21 00:18:38;;;;;;;18.37;14.43;;;9.40;99.90;;;;;;5017354;28;20241;-81
2023/04/21 00:21:05;;;;;;;20.13;16.07;;;9.50;99.90;;;;;;5017272;28;20210;-82
2023/04/21 00:23:34;;;;;;;20.73;15.73;;;9.40;99.90;;;;;;5017336;28;20203;-83
2023/04/21 00:26:01;;;;;;;19.43;15.17;;;9.40;99.90;;;;;;5016968;28;20258;-84
2023/04/21 00:28:28;;;;;;;18.57;15.30;;;9.50;99.90;;;;;;5017016;28;20291;-86
2023/04/21 00:30:55;;;;;;;20.93;15.60;;;9.50;99.90;;;;;;5016959;28;20209;-82
2023/04/21 00:33:22;;;;;;;20.83;15.50;;;9.50;99.90;;;;;;5016990;28;20242;-82
2023/04/21 00:35:49;;;;;;;20.03;15.23;;;9.40;99.90;;;;;;5035603;28;20503;-84
2023/04/21 00:38:16;;;;;;;21.30;16.60;;;9.40;99.90;;;;;;5037092;28;20218;-83
2023/04/21 00:40:44;;;;;;;23.03;15.93;;;9.40;99.90;;;;;;5036496;28;20495;-80
2023/04/21 00:43:11;;;;;;;19.40;16.00;;;9.40;99.90;;;;;;5020040;28;20286;-82
2023/04/21 00:45:38;;;;;;;21.37;17.00;;;9.50;99.90;;;;;;5016522;28;20512;-81
2023/04/21 00:48:05;;;;;;;23.27;16.93;;;9.50;99.90;;;;;;5016176;28;20223;-83
2023/04/21 00:50:32;;;;;;;23.57;17.60;;;9.40;99.90;;;;;;5016443;28;20207;-81
2023/04/21 00:53:00;;;;;;;21.53;17.47;;;9.50;99.90;;;;;;5016616;28;20491;-79
2023/04/21 00:55:27;;;;;;;20.83;17.33;;;9.50;99.90;;;;;;5015949;28;20596;-77
2023/04/21 00:57:56;;;;;;;21.37;16.40;;;9.40;99.90;;;;;;5017825;28;20498;-78
2023/04/21 01:00:23;;;;;;;20.53;17.27;;;9.50;99.90;;;;;;5036076;28;20282;-85
2023/04/21 01:02:50;;;;;;;20.93;17.07;;;9.50;99.90;;;;;;5035770;28;20217;-86
2023/04/21 01:05:18;;;;;;;21.60;17.47;;;9.50;99.90;;;;;;5036573;28;20296;-86
2023/04/21 01:07:45;;;;;;;23.40;18.03;;;9.40;99.90;;;;;;5035314;28;20226;-83
2023/04/21 01:10:12;;;;;;;20.77;18.00;;;9.40;99.90;;;;;;5017297;28;20290;-86
2023/04/21 01:12:45;;;;;;;25.87;18.80;;;9.40;99.90;;;;;;5016868;28;20209;-86
2023/04/21 01:15:15;;;;;;;23.13;18.47;;;9.40;99.90;;;;;;5016862;28;20652;-84
2023/04/21 01:17:44;;;;;;;21.20;18.33;;;9.40;99.90;;;;;;5016749;28;20223;-86
2023/04/21 01:20:12;;;;;;;24.10;19.87;;;9.30;99.90;;;;;;5016726;28;20199;-83
2023/04/21 01:22:43;;;;;;;25.43;20.07;;;9.30;99.90;;;;;;5016581;28;20231;-85
2023/04/21 01:25:12;;;;;;;23.77;19.10;;;9.30;99.90;;;;;;5016705;28;20299;-86
2023/04/21 01:27:39;;;;;;;23.00;19.63;;;9.30;99.90;;;;;;5016969;28;20231;-84
2023/04/21 01:30:08;;;;;;;23.73;19.27;;;9.30;99.90;;;;;;5016874;28;20207;-85
2023/04/21 01:32:37;;;;;;;23.60;20.17;;;9.30;99.90;;;;;;5016160;28;20199;-79
2023/04/21 01:35:05;;;;;;;26.53;21.33;;;9.30;99.90;;;;;;5025476;28;20286;-82
2023/04/21 01:37:33;;;;;;;26.13;20.77;;;9.20;99.90;;;;;;5016139;28;20196;-81
2023/04/21 01:40:04;;;;;;;26.07;21.17;;;9.20;99.90;;;;;;5015709;28;20999;-87
2023/04/21 01:42:34;;;;;;;27.67;21.77;;;9.20;99.90;;;;;;5015943;28;20207;-84
2023/04/21 01:45:01;;;;;;;29.00;22.47;;;9.20;99.90;;;;;;5016418;28;20214;-84
2023/04/21 01:47:29;;;;;;;28.40;22.20;;;9.20;99.90;;;;;;5015529;28;20664;-85
2023/04/21 01:49:55;;;;;;;28.63;23.40;;;9.20;99.90;;;;;;5031906;28;20302;-85
2023/04/21 01:52:22;;;;;;;29.57;24.50;;;9.20;99.90;;;;;;5036490;28;20230;-86
2023/04/21 01:54:50;;;;;;;32.87;25.10;;;9.20;99.90;;;;;;5033658;28;20207;-87
2023/04/21 01:57:18;;;;;;;32.57;24.43;;;9.20;99.90;;;;;;5016865;28;20547;-87
2023/04/21 01:59:45;;;;;;;32.67;24.10;;;9.20;99.90;;;;;;5016247;28;20290;-83
2023/04/21 02:02:12;;;;;;;33.67;26.33;;;9.20;99.90;;;;;;5016203;28;20204;-83
2023/04/21 02:04:39;;;;;;;33.83;26.03;;;9.20;99.90;;;;;;5015973;28;20251;-83
2023/04/21 02:07:06;;;;;;;35.83;27.17;;;9.20;99.90;;;;;;5015417;28;20730;-86
2023/04/21 02:09:37;;;;;;;32.43;26.40;;;9.30;99.90;;;;;;5015801;28;20199;-85
2023/04/21 02:12:05;;;;;;;33.83;26.60;;;9.20;99.90;;;;;;5015976;28;20227;-84
2023/04/21 02:14:33;;;;;;;31.37;26.37;;;9.20;99.90;;;;;;5015787;28;20213;-80
2023/04/21 02:17:02;;;;;;;37.00;28.47;;;9.20;99.90;;;;;;5015480;28;20477;-83
2023/04/21 02:19:29;;;;;;;37.53;29.30;;;9.20;99.90;;;;;;5016494;28;20302;-86
2023/04/21 02:21:56;;;;;;;38.33;29.53;;;9.20;99.90;;;;;;5015424;28;20272;-84
2023/04/21 02:24:23;;;;;;;35.03;28.43;;;9.20;99.90;;;;;;5016290;28;20640;-86
2023/04/21 02:26:50;;;;;;;38.17;30.37;;;9.20;99.90;;;;;;5015365;28;20203;-85
2023/04/21 02:29:17;;;;;;;37.23;29.30;;;9.20;99.90;;;;;;5015521;28;20210;-87
2023/04/21 02:31:46;;;;;;;39.33;30.23;;;9.20;99.90;;;;;;5016119;28;20250;-87
2023/04/21 02:34:14;;;;;;;43.43;30.87;;;9.20;99.90;;;;;;5015702;28;20223;-86
2023/04/21 02:36:41;;;;;;;34.20;27.63;;;9.20;99.90;;;;;;5018435;28;20286;-86
2023/04/21 02:39:07;;;;;;;38.90;29.03;;;9.10;99.90;;;;;;5034940;28;20280;-83
2023/04/21 02:41:34;;;;;;;38.23;29.77;;;9.10;99.90;;;;;;5034746;28;20195;-82
2023/04/21 02:44:01;;;;;;;36.10;28.63;;;9.20;99.90;;;;;;5033656;28;20568;-84
2023/04/21 02:46:29;;;;;;;35.83;27.90;;;9.20;99.90;;;;;;5034774;28;20207;-85
2023/04/21 02:48:58;;;;;;;37.97;27.57;;;9.20;99.90;;;;;;5034192;28;20257;-84
2023/04/21 02:51:24;;;;;;;36.70;27.50;;;9.20;99.90;;;;;;5022252;28;20207;-83
2023/04/21 02:53:51;;;;;;;35.47;26.23;;;9.20;99.90;;;;;;5015073;28;20423;-84
2023/04/21 02:56:19;;;;;;;32.50;26.17;;;9.20;99.90;;;;;;5015168;28;20286;-84
2023/04/21 02:58:46;;;;;;;34.83;25.77;;;9.20;99.90;;;;;;5015412;28;20283;-83
2023/04/21 03:01:13;;;;;;;35.77;26.50;;;9.20;99.90;;;;;;5027437;28;20206;-83
2023/04/21 03:03:40;;;;;;;32.63;25.33;;;9.20;99.90;;;;;;5034337;28;20222;-82
2023/04/21 03:06:08;;;;;;;30.43;24.87;;;9.10;99.90;;;;;;5034466;28;20202;-82
2023/04/21 03:08:35;;;;;;;30.00;23.50;;;9.10;99.90;;;;;;5026449;28;20219;-84
2023/04/21 03:11:02;;;;;;;31.27;22.27;;;9.10;99.90;;;;;;5013627;28;20203;-83
2023/04/21 03:13:29;;;;;;;31.87;24.20;;;9.10;99.90;;;;;;5014027;28;20564;-84
2023/04/21 03:15:56;;;;;;;31.00;23.73;;;9.10;99.90;;;;;;5014780;28;20195;-83
2023/04/21 03:18:23;;;;;;;28.73;22.73;;;9.10;99.90;;;;;;5014536;28;20638;-83
2023/04/21 03:20:50;;;;;;;27.17;21.47;;;9.10;99.90;;;;;;5014255;28;20231;-84
2023/04/21 03:23:19;;;;;;;27.73;21.03;;;9.10;99.90;;;;;;5014793;28;20215;-82
2023/04/21 03:25:46;;;;;;;30.17;23.43;;;9.10;99.90;;;;;;5018437;28;20249;-82
2023/04/21 03:28:13;;;;;;;27.93;22.43;;;9.10;99.90;;;;;;5034812;28;20317;-83
2023/04/21 03:30:40;;;;;;;31.23;21.37;;;9.10;99.90;;;;;;5034050;28;20209;-82
2023/04/21 03:33:06;;;;;;;27.17;20.57;;;9.10;99.90;;;;;;5024442;28;20223;-82
2023/04/21 03:35:34;;;;;;;29.67;22.20;;;9.10;99.90;;;;;;5014117;28;20195;-83
2023/04/21 03:38:01;;;;;;;28.40;21.13;;;9.00;99.90;;;;;;5014435;28;20345;-82
2023/04/21 03:40:29;;;;;;;26.13;19.30;;;9.10;99.90;;;;;;5013291;28;20203;-81
2023/04/21 03:42:56;;;;;;;25.47;19.30;;;9.00;99.90;;;;;;5014291;28;20207;-84
2023/04/21 03:45:23;;;;;;;25.27;18.90;;;9.10;99.90;;;;;;5031017;28;20207;-83
2023/04/21 03:47:53;;;;;;;26.57;18.93;;;9.10;99.90;;;;;;5033799;28;20329;-81
2023/04/21 03:50:20;;;;;;;25.37;19.53;;;9.10;99.90;;;;;;5033198;28;20242;-82
2023/04/21 03:52:47;;;;;;;26.63;20.70;;;9.10;99.90;;;;;;5033860;28;20193;-81
2023/04/21 03:55:14;;;;;;;28.87;21.20;;;9.10;99.90;;;;;;5019483;28;20699;-82
2023/04/21 03:57:42;;;;;;;25.73;19.53;;;9.10;99.90;;;;;;5014101;28;20768;-82
2023/04/21 04:00:11;;;;;;;24.90;20.10;;;9.10;99.90;;;;;;5014250;28;20196;-85
2023/04/21 04:02:38;;;;;;;25.67;19.97;;;9.10;99.90;;;;;;5020200;28;20622;-85
2023/04/21 04:05:06;;;;;;;26.17;18.80;;;9.10;99.90;;;;;;5034412;28;20316;-84
2023/04/21 04:07:33;;;;;;;23.40;17.47;;;9.10;99.90;;;;;;5033716;28;20213;-84
2023/04/21 04:10:00;;;;;;;24.70;19.50;;;9.10;99.90;;;;;;5033965;28;20218;-83
2023/04/21 04:12:27;;;;;;;23.07;18.47;;;9.10;99.90;;;;;;5027159;28;20210;-84
2023/04/21 04:14:55;;;;;;;22.27;17.73;;;9.10;99.90;;;;;;5014258;28;20199;-82
2023/04/21 04:17:22;;;;;;;21.47;17.33;;;9.10;99.90;;;;;;5014564;28;20203;-83
2023/04/21 04:19:49;;;;;;;20.57;16.43;;;9.10;99.90;;;;;;5014194;28;20206;-84
2023/04/21 04:22:16;;;;;;;21.17;16.53;;;9.10;99.90;;;;;;5013889;28;20622;-84
2023/04/21 04:24:43;;;;;;;24.73;17.70;;;9.10;99.90;;;;;;5013394;28;20662;-83
2023/04/21 04:27:12;;;;;;;22.33;17.30;;;9.10;99.90;;;;;;5014297;28;20618;-83
2023/04/21 04:29:39;;;;;;;23.30;17.23;;;9.10;99.90;;;;;;5028389;28;20257;-81
2023/04/21 04:32:09;;;;;;;21.67;17.40;;;9.10;99.90;;;;;;5033775;28;20255;-83
2023/04/21 04:34:37;;;;;;;19.90;16.20;;;9.10;99.90;;;;;;5033005;28;20596;-81
2023/04/21 04:37:05;;;;;;;17.67;15.20;;;9.10;99.90;;;;;;5033984;28;20405;-83
2023/04/21 04:39:32;;;;;;;18.13;14.47;;;9.10;99.90;;;;;;5013288;28;20578;-82
2023/04/21 04:42:00;;;;;;;18.50;14.70;;;9.10;99.90;;;;;;5013638;28;20645;-82
2023/04/21 04:44:27;;;;;;;19.37;15.37;;;9.10;99.90;;;;;;5013720;28;20604;-83
2023/04/21 04:46:53;;;;;;;17.73;14.33;;;9.10;99.90;;;;;;5013531;28;20227;-83
2023/04/21 04:49:22;;;;;;;16.43;13.97;;;9.10;99.90;;;;;;5013147;28;20231;-83
2023/04/21 04:51:49;;;;;;;17.83;14.50;;;9.10;99.90;;;;;;5017293;28;20218;-81
2023/04/21 04:54:16;;;;;;;19.43;15.00;;;9.10;99.90;;;;;;5017369;28;20604;-82
2023/04/21 04:56:43;;;;;;;19.23;15.37;;;9.10;99.90;;;;;;5017458;28;20485;-82
2023/04/21 04:59:10;;;;;;;17.27;14.57;;;9.10;99.90;;;;;;5017128;28;20291;-84
2023/04/21 05:01:38;;;;;;;20.43;16.17;;;9.10;99.90;;;;;;5016990;28;20207;-82
2023/04/21 05:04:05;;;;;;;23.70;19.03;;;9.10;99.90;;;;;;5016787;28;20227;-84
2023/04/21 05:06:34;;;;;;;23.40;18.50;;;9.10;99.90;;;;;;5017796;28;20529;-84
2023/04/21 05:09:00;;;;;;;21.80;16.80;;;9.10;99.90;;;;;;5017405;28;20602;-84
2023/04/21 05:11:27;;;;;;;21.63;16.90;;;9.10;99.90;;;;;;5036754;28;20293;-83
2023/04/21 05:13:54;;;;;;;23.30;18.03;;;9.10;99.90;;;;;;5037147;28;20249;-82
2023/04/21 05:16:21;;;;;;;25.20;18.90;;;9.10;99.90;;;;;;5037241;28;20274;-84
2023/04/21 05:18:49;;;;;;;23.77;18.83;;;9.10;99.90;;;;;;5035406;28;20230;-83
2023/04/21 05:21:23;;;;;;;28.53;22.73;;;9.10;99.90;;;;;;5036913;28;20194;-80
2023/04/21 05:23:52;;;;;;;29.17;22.53;;;9.10;99.90;;;;;;5036810;28;20190;-82
2023/04/21 05:26:19;;;;;;;30.77;24.17;;;9.10;99.90;;;;;;5021385;28;20233;-83
2023/04/21 05:28:46;;;;;;;36.27;28.13;;;9.10;99.90;;;;;;5016293;28;20557;-83
2023/04/21 05:31:13;;;;;;;33.20;26.50;;;9.10;99.90;;;;;;5016267;28;20249;-85
2023/04/21 05:33:40;;;;;;;34.90;28.50;;;9.20;99.90;;;;;;5031788;28;20203;-84
2023/04/21 05:36:08;;;;;;;37.17;28.10;;;9.20;99.90;;;;;;5035432;28;20625;-83
2023/04/21 05:38:35;;;;;;;38.97;30.40;;;9.20;99.90;;;;;;5018590;28;20508;-83
2023/04/21 05:41:03;;;;;;;39.10;30.30;;;9.20;99.90;;;;;;5017877;28;20203;-84
2023/04/21 05:43:32;;;;;;;37.43;30.23;;;9.20;99.90;;;;;;5033173;28;20218;-84
2023/04/21 05:45:59;;;;;;;41.50;31.03;;;9.30;99.90;;;;;;5036385;28;20202;-84
2023/04/21 05:48:25;;;;;;;40.90;31.10;;;9.30;99.90;;;;;;5036859;28;20325;-85
2023/04/21 05:50:53;;;;;;;40.83;32.00;;;9.30;99.90;;;;;;5022050;28;20203;-83
2023/04/21 05:53:20;;;;;;;42.20;32.10;;;9.30;99.90;;;;;;5016613;28;20207;-84
2023/04/21 05:55:46;;;;;;;48.70;34.47;;;9.30;99.90;;;;;;5015912;28;20302;-82
2023/04/21 05:58:15;;;;;;;42.60;33.03;;;9.30;99.90;;;;;;5017285;28;20284;-82
2023/04/21 06:00:42;;;;;;;41.83;32.73;;;9.30;99.90;;;;;;5035947;28;20496;-85
2023/04/21 06:03:08;;;;;;;42.27;33.60;;;9.40;99.90;;;;;;5035101;28;20198;-83
2023/04/21 06:05:35;;;;;;;39.87;32.47;;;9.40;99.90;;;;;;5034625;28;20213;-84
2023/04/21 06:08:02;;;;;;;40.60;31.20;;;9.40;99.90;;;;;;5035527;28;20505;-85
2023/04/21 06:10:29;;;;;;;39.47;31.80;;;9.50;99.90;;;;;;5035718;28;20210;-85
2023/04/21 06:12:56;;;;;;;43.60;32.63;;;9.50;99.90;;;;;;5034877;28;20234;-86
2023/04/21 06:15:24;;;;;;;39.00;31.13;;;9.50;99.90;;;;;;5032010;28;20238;-85
2023/04/21 06:17:53;;;;;;;42.23;32.97;;;9.60;99.90;;;;;;5017210;28;20207;-84
2023/04/21 06:20:20;;;;;;;40.20;30.60;;;9.60;99.90;;;;;;5025277;28;20245;-86
2023/04/21 06:22:47;;;;;;;41.13;32.40;;;9.70;99.90;;;;;;5034313;28;20230;-87
2023/04/21 06:25:14;;;;;;;40.97;31.73;;;9.70;99.90;;;;;;5035526;28;20233;-86
2023/04/21 06:27:46;;;;;;;45.37;33.93;;;9.80;99.90;;;;;;5012183;28;20210;-86
2023/04/21 06:30:16;;;;;;;42.13;33.50;;;9.80;99.90;;;;;;5027065;28;20207;-84
2023/04/21 06:32:46;;;;;;;42.23;31.73;;;9.80;99.90;;;;;;5023404;28;20276;-85
2023/04/21 06:35:13;;;;;;;39.77;31.30;;;9.90;99.90;;;;;;5026441;28;20230;-83
2023/04/21 06:37:40;;;;;;;41.67;33.63;;;9.90;99.90;;;;;;5025099;28;20241;-84
2023/04/21 06:40:08;;;;;;;45.97;32.53;;;9.90;99.90;;;;;;5022201;28;20286;-87
2023/04/21 06:42:35;;;;;;;44.97;34.10;;;10.00;99.90;;;;;;5016231;28;20217;-85
2023/04/21 06:45:05;;;;;;;47.17;35.77;;;10.00;99.90;;;;;;5018073;28;20238;-85
2023/04/21 06:47:32;;;;;;;41.37;32.13;;;10.10;99.90;;;;;;5015831;28;20207;-86
2023/04/21 06:50:01;;;;;;;41.40;34.03;;;10.10;99.90;;;;;;5015704;28;20267;-86
2023/04/21 06:52:28;;;;;;;47.47;32.63;;;10.20;99.90;;;;;;5015843;28;20291;-86
2023/04/21 06:54:54;;;;;;;40.90;32.47;;;10.20;99.90;;;;;;5015411;28;20229;-85
2023/04/21 06:57:21;;;;;;;40.50;31.87;;;10.30;99.90;;;;;;5014950;28;20199;-83
2023/04/21 06:59:48;;;;;;;41.60;33.43;;;10.20;99.90;;;;;;5015313;28;20226;-86
2023/04/21 07:02:15;;;;;;;41.97;32.60;;;10.30;99.90;;;;;;5014925;28;20733;-85
2023/04/21 07:04:42;;;;;;;36.90;31.60;;;10.20;99.90;;;;;;5014864;28;20200;-85
2023/04/21 07:07:10;;;;;;;41.70;33.30;;;10.30;99.90;;;;;;5015450;28;20617;-86
2023/04/21 07:09:37;;;;;;;39.63;30.27;;;10.20;99.90;;;;;;5023216;28;20229;-87
2023/04/21 07:12:04;;;;;;;37.27;30.23;;;10.30;99.90;;;;;;5035661;28;20206;-86
2023/04/21 07:14:31;;;;;;;42.67;31.77;;;10.30;99.90;;;;;;5035430;28;20213;-85
2023/04/21 07:16:58;;;;;;;36.43;29.17;;;10.30;99.90;;;;;;5034689;28;20222;-87
2023/04/21 07:19:25;;;;;;;38.80;28.30;;;10.40;99.90;;;;;;5035463;28;20190;-85
2023/04/21 07:21:52;;;;;;;41.70;30.23;;;10.40;99.90;;;;;;5035097;28;20202;-85
2023/04/21 07:24:20;;;;;;;34.90;27.57;;;10.40;99.90;;;;;;5022907;28;20242;-86
2023/04/21 07:26:47;;;;;;;36.43;29.27;;;10.50;99.90;;;;;;5015173;28;20294;-86
2023/04/21 07:29:14;;;;;;;38.50;29.63;;;10.60;99.90;;;;;;5015267;28;20225;-85
2023/04/21 07:31:41;;;;;;;36.30;29.40;;;10.60;99.90;;;;;;5015213;28;20200;-87
2023/04/21 07:34:08;;;;;;;34.50;29.33;;;10.60;99.90;;;;;;5015815;28;20223;-84
2023/04/21 07:36:36;;;;;;;35.83;28.70;;;10.70;99.90;;;;;;5015344;28;20203;-86
2023/04/21 07:39:04;;;;;;;36.63;27.20;;;10.70;99.90;;;;;;5014909;28;20205;-86
2023/04/21 07:41:32;;;;;;;34.17;26.87;;;10.70;99.90;;;;;;5014916;28;20207;-85
2023/04/21 07:43:59;;;;;;;34.37;26.10;;;10.70;99.90;;;;;;5014871;28;20203;-86
2023/04/21 07:46:29;;;;;;;33.67;26.87;;;10.70;99.90;;;;;;5014842;28;20195;-87
2023/04/21 07:48:56;;;;;;;30.73;25.63;;;10.80;99.90;;;;;;5020670;28;20238;-84
2023/04/21 07:51:23;;;;;;;28.90;25.70;;;10.80;99.90;;;;;;5017819;28;20234;-87
2023/04/21 07:53:49;;;;;;;32.20;27.50;;;10.90;99.90;;;;;;5019199;28;20287;-86
2023/04/21 07:56:17;;;;;;;30.27;25.57;;;10.90;99.90;;;;;;5034393;28;20779;-86
2023/04/21 07:58:45;;;;;;;31.67;25.93;;;11.00;99.90;;;;;;5018428;28;20203;-85
2023/04/21 08:01:12;;;;;;;30.43;26.70;;;11.10;99.90;;;;;;5014877;28;20554;-86
2023/04/21 08:03:39;;;;;;;29.67;26.27;;;11.10;99.90;;;;;;5027084;28;20301;-86
2023/04/21 08:06:06;;;;;;;32.43;25.97;;;11.20;99.90;;;;;;5034435;28;20282;-86
2023/04/21 08:08:33;;;;;;;30.57;25.43;;;11.30;99.90;;;;;;5034512;28;20191;-81
2023/04/21 08:11:00;;;;;;;32.30;25.20;;;11.50;99.90;;;;;;5024911;28;20224;-83
2023/04/21 08:13:27;;;;;;;30.53;25.33;;;11.70;99.90;;;;;;5014316;28;20226;-83
2023/04/21 08:15:55;;;;;;;28.80;25.03;;;11.80;99.90;;;;;;5015146;28;20678;-83
2023/04/21 08:18:23;;;;;;;26.77;23.77;;;12.00;99.90;;;;;;5034304;28;20195;-83
2023/04/21 08:20:51;;;;;;;29.97;23.83;;;12.00;99.90;;;;;;5031064;28;20207;-83
2023/04/21 08:23:18;;;;;;;27.30;22.30;;;12.20;99.90;;;;;;5025753;28;20222;-83
2023/04/21 08:25:45;;;;;;;27.77;24.87;;;12.40;99.90;;;;;;5027421;28;20626;-83
2023/04/21 08:28:13;;;;;;;29.23;24.37;;;12.40;99.90;;;;;;5036750;28;20614;-85
2023/04/21 08:30:39;;;;;;;26.87;23.97;;;12.40;99.90;;;;;;5030413;28;20792;-85
2023/04/21 08:33:12;;;;;;;29.93;24.60;;;12.30;99.90;;;;;;5037656;28;20198;-86
2023/04/21 08:35:39;;;;;;;28.10;23.00;;;12.40;99.90;;;;;;5033828;28;20234;-84
2023/04/21 08:38:07;;;;;;;24.60;21.97;;;12.40;99.90;;;;;;5028115;28;20510;-85
2023/04/21 08:40:36;;;;;;;27.37;22.97;;;12.50;99.90;;;;;;5026836;28;20195;-85
2023/04/21 08:43:04;;;;;;;28.10;23.00;;;12.40;99.90;;;;;;5024329;28;20214;-85
2023/04/21 08:45:32;;;;;;;25.87;22.17;;;12.50;99.90;;;;;;5021467;28;20740;-85
2023/04/21 08:48:00;;;;;;;27.17;23.30;;;12.50;99.90;;;;;;5021170;28;20472;-84
2023/04/21 08:50:31;;;;;;;24.73;22.00;;;12.50;99.90;;;;;;5018821;28;20326;-85
2023/04/21 08:52:58;;;;;;;24.80;22.30;;;12.60;99.90;;;;;;5029049;28;20227;-86
2023/04/21 08:55:27;;;;;;;25.07;22.20;;;12.60;99.90;;;;;;5025687;28;20242;-83
2023/04/21 08:57:53;;;;;;;27.87;24.30;;;12.70;99.90;;;;;;5017837;28;20204;-85
2023/04/21 09:00:21;;;;;;;26.83;22.33;;;12.80;99.90;;;;;;5028240;28;20217;-86
2023/04/21 09:02:56;;;;;;;27.57;22.53;;;13.00;99.90;;;;;;5034687;28;20204;-86
2023/04/21 09:05:24;;;;;;;25.97;22.70;;;13.00;99.90;;;;;;5020661;28;20206;-82
2023/04/21 09:08:06;;;;;;;24.13;21.53;;;12.90;99.90;;;;;;5017294;28;20210;-86
2023/04/21 09:10:33;;;;;;;24.57;21.83;;;13.00;99.90;;;;;;5016873;28;20754;-83
2023/04/21 09:13:07;;;;;;;25.93;21.30;;;13.10;99.90;;;;;;5016632;28;20209;-83
2023/04/21 09:15:39;;;;;;;24.53;20.67;;;13.20;99.90;;;;;;5017496;28;20293;-85
2023/04/21 09:18:12;;;;;;;23.70;21.13;;;13.30;99.90;;;;;;5017029;28;20203;-84
2023/04/21 09:20:40;;;;;;;22.83;20.40;;;13.40;99.90;;;;;;5016448;28;20199;-83
2023/04/21 09:23:08;;;;;;;25.50;20.80;;;13.40;99.90;;;;;;5015791;28;20191;-84
2023/04/21 09:25:35;;;;;;;23.60;20.50;;;13.40;99.90;;;;;;5016540;28;20302;-87
2023/04/21 09:28:02;;;;;;;24.27;19.90;;;13.50;99.90;;;;;;5029103;28;20289;-86
2023/04/21 09:30:28;;;;;;;26.27;21.43;;;13.70;99.90;;;;;;5033566;28;20305;-85
2023/04/21 09:33:01;;;;;;;22.17;19.60;;;13.90;99.90;;;;;;5029589;28;20227;-84
2023/04/21 09:35:29;;;;;;;23.77;19.83;;;13.90;99.90;;;;;;5027751;28;20486;-85
2023/04/21 09:37:56;;;;;;;23.60;21.10;;;14.00;99.90;;;;;;5019531;28;20198;-85
2023/04/21 09:40:24;;;;;;;24.20;21.17;;;14.00;99.90;;;;;;5021029;28;20199;-86
2023/04/21 09:42:51;;;;;;;22.00;19.60;;;14.00;99.90;;;;;;5030371;28;20660;-87
2023/04/21 09:45:18;;;;;;;24.87;20.43;;;14.00;99.90;;;;;;5027425;28;20534;-82
2023/04/21 09:47:50;;;;;;;31.93;20.10;;;14.10;99.90;;;;;;5018331;28;20287;-85
2023/04/21 09:50:18;;;;;;;24.23;19.20;;;14.30;99.90;;;;;;5036363;28;20241;-83
2023/04/21 09:52:48;;;;;;;22.10;19.73;;;14.30;99.90;;;;;;5030335;28;20624;-84
2023/04/21 09:55:16;;;;;;;21.67;19.07;;;14.40;99.90;;;;;;5016546;28;20230;-87
2023/04/21 09:57:48;;;;;;;22.87;19.33;;;14.40;99.90;;;;;;5016376;28;20202;-83
2023/04/21 10:00:19;;;;;;;22.03;19.43;;;14.50;99.90;;;;;;5014361;28;20768;-87
2023/04/21 10:02:49;;;;;;;20.83;18.27;;;14.60;99.90;;;;;;5025708;28;20570;-84
2023/04/21 10:05:16;;;;;;;22.60;19.10;;;14.80;99.90;;;;;;5034571;28;20199;-85
2023/04/21 10:07:45;;;;;;;22.37;19.20;;;14.80;99.90;;;;;;5034443;28;20206;-86
2023/04/21 10:10:18;;;;;;;23.27;19.10;;;14.80;99.90;;;;;;5035474;28;20666;-86
2023/04/21 10:12:46;;;;;;;20.90;17.87;;;14.70;99.90;;;;;;5021198;28;20643;-83
2023/04/21 10:15:29;;;;;;;22.00;19.40;;;14.70;99.90;;;;;;5015358;28;20207;-80
2023/04/21 10:18:12;;;;;;;25.90;18.83;;;14.70;99.90;;;;;;5026542;28;20294;-80
2023/04/21 10:20:52;;;;;;;20.37;18.27;;;14.60;99.90;;;;;;5016089;28;20195;-81
2023/04/21 10:23:38;;;;;;;21.43;19.20;;;14.70;99.90;;;;;;5014588;28;20198;-83
2023/04/21 10:26:08;;;;;;;21.30;18.93;;;14.70;99.90;;;;;;5013292;28;20314;-86
2023/04/21 10:28:44;;;;;;;21.83;19.10;;;14.80;99.90;;;;;;5031472;28;20633;-84
2023/04/21 10:31:29;;;;;;;20.50;18.33;;;14.80;99.90;;;;;;5035006;28;20217;-82
2023/04/21 10:34:16;;;;;;;21.13;18.80;;;14.80;99.90;;;;;;5026640;28;20210;-82
2023/04/21 10:36:48;;;;;;;21.13;18.17;;;14.60;99.90;;;;;;5014752;28;20205;-80
2023/04/21 10:39:27;;;;;;;23.10;18.70;;;14.60;99.90;;;;;;5014754;28;20223;-84
2023/04/21 10:41:57;;;;;;;22.53;18.57;;;14.50;99.90;;;;;;5025082;28;20281;-84
2023/04/21 10:44:28;;;;;;;22.20;18.90;;;14.50;99.90;;;;;;5029632;28;20195;-83
2023/04/21 10:46:58;;;;;;;20.87;18.43;;;14.60;99.90;;;;;;5018804;28;20499;-81
2023/04/21 10:49:26;;;;;;;20.70;18.00;;;14.60;99.90;;;;;;5034486;28;20257;-88
2023/04/21 10:52:04;;;;;;;23.50;18.00;;;14.60;99.90;;;;;;5035081;28;20233;-81
2023/04/21 10:54:41;;;;;;;20.15;18.05;;;14.60;99.90;;;;;;5035239;28;20206;-87
2023/04/21 10:57:16;;;;;;;20.35;16.92;;;14.70;99.90;;;;;;5034691;28;20186;-84
2023/04/21 10:59:45;;;;;;;20.95;18.48;;;14.70;99.90;;;;;;5014761;28;20210;-83
2023/04/21 11:02:14;;;;;;;23.15;18.80;;;14.60;99.90;;;;;;5014752;28;20534;-85
2023/04/21 11:04:44;;;;;;;20.67;18.00;;;14.50;99.90;;;;;;5035021;28;20214;-86
2023/04/21 11:07:12;;;;;;;20.05;18.02;;;14.50;99.90;;;;;;5035613;28;20226;-82
2023/04/21 11:09:41;;;;;;;20.30;18.13;;;14.50;99.90;;;;;;5034691;28;20198;-85
2023/04/21 11:12:10;;;;;;;20.93;17.87;;;14.50;99.90;;;;;;5035122;28;20796;-84
2023/04/21 11:14:38;;;;;;;21.80;19.30;;;14.60;99.90;;;;;;5034829;28;20281;-86
2023/04/21 11:17:12;;;;;;;21.33;19.00;;;14.60;99.90;;;;;;5034992;28;20312;-85
2023/04/21 11:19:39;;;;;;;21.85;19.45;;;14.70;99.90;;;;;;5023905;28;20226;-84
2023/04/21 11:22:06;;;;;;;22.57;18.77;;;14.80;99.90;;;;;;5014630;28;20495;-85
2023/04/21 11:24:33;;;;;;;21.33;18.37;;;14.70;99.90;;;;;;5014883;28;20242;-82
2023/04/21 11:27:01;;;;;;;24.70;19.77;;;14.70;99.90;;;;;;5013917;28;20219;-87
2023/04/21 11:29:29;;;;;;;21.47;19.20;;;14.60;99.90;;;;;;5014472;28;20202;-82
2023/04/21 11:31:57;;;;;;;23.80;20.00;;;14.50;99.90;;;;;;5022698;28;20215;-85
2023/04/21 11:34:26;;;;;;;24.30;19.77;;;14.60;99.90;;;;;;5034648;28;20206;-90
2023/04/21 11:36:54;;;;;;;21.90;18.90;;;14.70;99.90;;;;;;5018679;28;20580;-88
2023/04/21 11:39:21;;;;;;;22.27;18.63;;;14.60;99.90;;;;;;5014840;28;20231;-84
2023/04/21 11:41:50;;;;;;;23.43;18.07;;;14.60;99.90;;;;;;5014464;28;20230;-85
2023/04/21 11:44:32;;;;;;;20.30;18.20;;;14.60;99.90;;;;;;5013465;28;20214;-86
2023/04/21 11:46:58;;;;;;;21.40;18.67;;;14.60;99.90;;;;;;5014716;28;20587;-89
2023/04/21 11:49:29;;;;;;;23.67;19.10;;;14.60;99.90;;;;;;5014193;28;20685;-86
2023/04/21 11:51:56;;;;;;;24.93;19.43;;;14.70;99.90;;;;;;5014147;28;20237;-86
2023/04/21 11:54:23;;;;;;;24.53;18.63;;;14.90;99.90;;;;;;5014944;28;20321;-83
2023/04/21 11:56:51;;;;;;;20.97;18.73;;;15.00;99.90;;;;;;5014092;28;20295;-83
2023/04/21 11:59:23;;;;;;;20.90;18.63;;;15.10;99.90;;;;;;5013197;28;20203;-82
2023/04/21 12:01:51;;;;;;;23.13;20.27;;;15.10;99.90;;;;;;5032802;28;20661;-86
2023/04/21 12:04:20;;;;;;;26.50;19.67;;;15.00;99.90;;;;;;5022741;28;20783;-83
2023/04/21 12:06:58;;;;;;;21.00;18.20;;;15.00;99.90;;;;;;5013757;28;20204;-87
2023/04/21 12:09:26;;;;;;;23.33;19.63;;;14.90;99.90;;;;;;5014288;28;20227;-87
2023/04/21 12:11:54;;;;;;;24.80;21.23;;;14.90;99.90;;;;;;5013874;28;20227;-83
2023/04/21 12:14:23;;;;;;;24.47;20.00;;;14.80;99.90;;;;;;5014542;28;20204;-86
2023/04/21 12:16:51;;;;;;;24.17;20.40;;;14.80;99.90;;;;;;5014635;28;20294;-86
2023/04/21 12:19:35;;;;;;;25.17;20.57;;;14.80;99.90;;;;;;5013004;28;20223;-84
2023/04/21 12:22:07;;;;;;;26.30;20.80;;;14.80;99.90;;;;;;5013865;28;20239;-83
2023/04/21 12:24:34;;;;;;;22.23;19.90;;;14.80;99.90;;;;;;5013482;28;20250;-84
2023/04/21 12:27:01;;;;;;;24.27;21.10;;;14.80;99.90;;;;;;5012262;28;20483;-82
2023/04/21 12:29:28;;;;;;;22.43;20.03;;;15.00;99.90;;;;;;5018914;28;20218;-82
2023/04/21 12:31:55;;;;;;;22.40;19.80;;;15.20;99.90;;;;;;5032246;28;20313;-84
2023/04/21 12:34:22;;;;;;;22.10;19.77;;;15.40;99.90;;;;;;5032620;28;20198;-80
2023/04/21 12:36:49;;;;;;;26.38;20.60;;;15.70;99.90;;;;;;5032694;28;20201;-83
2023/04/21 12:39:18;;;;;;;22.17;19.77;;;16.10;99.90;;;;;;5014204;28;20210;-84